Time;durP1;ratioP1;P1;durP2;ratioP2;P2;SDS_P1;SDS_P2;PMS_P1;PMS_P2;Temp;Humidity;BMP_temperature;BMP_pressure;BME280_temperature;BME280_humidity;BME280_pressure;Samples;Min_cycle;Max_cycle;Signal;HPM_P1;HPM_P2
2024/01/22 00:00:58;;;;;;;4.93;3.70;;;;;;;7.58;100.00;100874.56;5070342;28;20051;-76
2024/01/22 00:03:23;;;;;;;7.47;3.75;;;;;;;7.57;100.00;100849.03;5070180;28;20035;-77
2024/01/22 00:05:49;;;;;;;7.68;4.22;;;;;;;7.63;100.00;100861.59;5070193;28;20032;-76
2024/01/22 00:08:14;;;;;;;8.05;4.60;;;;;;;7.63;100.00;100843.00;5070206;28;20052;-77
2024/01/22 00:10:40;;;;;;;5.72;3.60;;;;;;;7.67;100.00;100823.03;5069946;28;20434;-77
2024/01/22 00:13:05;;;;;;;9.93;3.63;;;;;;;7.72;100.00;100827.00;5068814;28;20028;-76
2024/01/22 00:15:32;;;;;;;5.80;3.33;;;;;;;7.72;100.00;100811.09;5068840;28;20051;-77
2024/01/22 00:17:57;;;;;;;8.88;3.55;;;;;;;7.76;100.00;100807.91;5070110;28;20029;-76
2024/01/22 00:20:22;;;;;;;6.55;3.15;;;;;;;7.76;100.00;100812.38;5070013;28;20104;-76
2024/01/22 00:22:48;;;;;;;6.53;3.75;;;;;;;7.76;100.00;100810.56;5068730;28;20032;-76
2024/01/22 00:25:13;;;;;;;6.15;3.17;;;;;;;7.75;100.00;100802.75;5069928;28;20035;-76
2024/01/22 00:27:39;;;;;;;9.23;3.45;;;;;;;7.75;100.00;100805.41;5069807;28;20043;-76
2024/01/22 00:30:06;;;;;;;5.05;2.60;;;;;;;7.74;100.00;100823.19;5068175;28;20361;-77
2024/01/22 00:32:31;;;;;;;7.07;2.90;;;;;;;7.79;100.00;100794.25;5069727;28;20052;-77
2024/01/22 00:34:57;;;;;;;8.85;4.03;;;;;;;7.85;100.00;100792.72;5069718;28;20177;-77
2024/01/22 00:37:22;;;;;;;9.27;3.83;;;;;;;7.90;100.00;100774.41;5069819;28;20056;-77
2024/01/22 00:39:48;;;;;;;4.60;3.10;;;;;;;7.89;100.00;100783.38;5068238;28;20491;-77
2024/01/22 00:42:13;;;;;;;5.68;3.20;;;;;;;7.85;100.00;100776.78;5069712;28;20111;-77
2024/01/22 00:44:39;;;;;;;5.38;3.03;;;;;;;7.90;100.00;100743.38;5069831;28;20031;-76
2024/01/22 00:47:04;;;;;;;4.00;2.97;;;;;;;7.87;100.00;100761.50;5069498;28;20032;-77
2024/01/22 00:49:30;;;;;;;8.20;4.20;;;;;;;7.89;100.00;100743.56;5069010;28;20499;-77
2024/01/22 00:51:55;;;;;;;5.65;3.15;;;;;;;7.90;100.00;100731.91;5069555;28;20155;-77
2024/01/22 00:54:21;;;;;;;7.75;3.28;;;;;;;7.93;100.00;100746.66;5069593;28;20029;-77
2024/01/22 00:56:46;;;;;;;11.15;3.00;;;;;;;7.93;100.00;100744.00;5069450;28;20515;-77
2024/01/22 00:59:11;;;;;;;6.82;3.78;;;;;;;7.94;100.00;100735.03;5069590;28;20051;-77
2024/01/22 01:01:37;;;;;;;6.30;3.35;;;;;;;8.00;100.00;100735.13;5069682;28;20552;-77
2024/01/22 01:04:02;;;;;;;6.95;3.88;;;;;;;8.02;100.00;100741.09;5069404;28;20032;-76
2024/01/22 01:06:28;;;;;;;5.88;3.75;;;;;;;8.03;100.00;100733.94;5069528;28;20031;-77
2024/01/22 01:08:53;;;;;;;8.57;4.00;;;;;;;8.06;100.00;100722.94;5068001;28;20114;-77
2024/01/22 01:11:18;;;;;;;9.15;4.07;;;;;;;8.10;100.00;100734.88;5069300;28;20056;-77
2024/01/22 01:13:44;;;;;;;6.25;3.22;;;;;;;8.17;100.00;100742.91;5069353;28;20177;-77
2024/01/22 01:16:09;;;;;;;6.90;3.03;;;;;;;8.23;100.00;100716.44;5069290;28;20663;-77
2024/01/22 01:18:34;;;;;;;7.55;2.90;;;;;;;8.23;100.00;100723.59;5069303;28;20040;-77
2024/01/22 01:21:00;;;;;;;5.80;3.88;;;;;;;8.27;100.00;100731.00;5069297;28;20035;-77
2024/01/22 01:23:25;;;;;;;4.30;2.78;;;;;;;8.26;100.00;100712.59;5069350;28;20039;-76
2024/01/22 01:25:50;;;;;;;8.07;3.20;;;;;;;8.24;100.00;100712.78;5069085;28;20111;-77
2024/01/22 01:28:16;;;;;;;3.53;2.53;;;;;;;8.34;100.00;100721.28;5069235;28;20036;-77
2024/01/22 01:30:41;;;;;;;7.05;2.92;;;;;;;8.33;100.00;100732.09;5069249;28;20051;-77
2024/01/22 01:33:06;;;;;;;4.25;2.90;;;;;;;8.37;100.00;100712.13;5067727;28;20063;-77
2024/01/22 01:35:32;;;;;;;5.70;2.65;;;;;;;8.39;100.00;100722.59;5069173;28;20024;-76
2024/01/22 01:37:57;;;;;;;5.03;2.70;;;;;;;8.40;100.00;100700.34;5069112;28;20048;-77
2024/01/22 01:40:23;;;;;;;6.82;2.92;;;;;;;8.45;100.00;100692.63;5051033;28;20025;-77
2024/01/22 01:42:48;;;;;;;5.32;2.83;;;;;;;8.52;100.00;100704.16;5069130;28;20497;-77
2024/01/22 01:45:15;;;;;;;5.05;2.45;;;;;;;8.55;100.00;100698.47;5069031;28;20036;-77
2024/01/22 01:47:51;;;;;;;5.30;2.17;;;;;;;8.58;100.00;100694.63;5069029;28;20063;-76
2024/01/22 01:50:17;;;;;;;7.82;2.85;;;;;;;8.52;100.00;100686.38;5069005;28;20020;-77
2024/01/22 01:52:43;;;;;;;5.65;2.60;;;;;;;8.62;100.00;100688.75;5069004;28;20116;-77
2024/01/22 01:55:10;;;;;;;2.42;1.98;;;;;;;8.64;100.00;100697.34;5068975;28;20070;-77
2024/01/22 01:57:38;;;;;;;4.90;2.53;;;;;;;8.66;100.00;100663.41;5068851;28;20035;-76
2024/01/22 02:00:09;;;;;;;4.78;2.20;;;;;;;8.68;100.00;100666.72;5071232;28;20043;-77
2024/01/22 02:02:38;;;;;;;2.83;1.98;;;;;;;8.67;100.00;100673.06;5072495;28;20032;-77
2024/01/22 02:05:04;;;;;;;4.55;2.58;;;;;;;8.66;100.00;100646.66;5072386;28;20472;-77
2024/01/22 02:07:29;;;;;;;7.03;2.67;;;;;;;8.70;100.00;100640.78;5071055;28;20074;-77
2024/01/22 02:09:54;;;;;;;3.88;2.13;;;;;;;8.67;100.00;100635.84;5072291;28;20036;-77
2024/01/22 02:12:20;;;;;;;7.93;2.63;;;;;;;8.68;100.00;100631.34;5071116;28;20043;-77
2024/01/22 02:14:46;;;;;;;5.43;3.58;;;;;;;8.74;100.00;100650.00;5072446;28;20036;-77
2024/01/22 02:17:12;;;;;;;5.35;2.00;;;;;;;8.70;100.00;100611.53;5070981;28;20693;-76
2024/01/22 02:19:37;;;;;;;5.88;2.47;;;;;;;8.80;100.00;100613.84;5072245;28;20111;-77
2024/01/22 02:22:03;;;;;;;6.18;2.47;;;;;;;8.79;100.00;100609.53;5072242;28;20116;-77
2024/01/22 02:24:29;;;;;;;4.10;2.22;;;;;;;8.83;100.00;100588.69;5072279;28;20032;-77
2024/01/22 02:26:54;;;;;;;4.80;2.72;;;;;;;8.90;100.00;100597.56;5070699;28;20064;-76
2024/01/22 02:29:19;;;;;;;3.00;2.20;;;;;;;8.92;100.00;100568.94;5072023;28;20037;-77
2024/01/22 02:31:48;;;;;;;4.45;2.70;;;;;;;8.94;100.00;100588.19;5071952;28;20060;-76
2024/01/22 02:34:13;;;;;;;4.75;2.22;;;;;;;8.90;100.00;100585.09;5071953;28;20032;-77
2024/01/22 02:36:39;;;;;;;4.97;2.80;;;;;;;8.96;100.00;100567.53;5071943;28;20376;-76
2024/01/22 02:39:04;;;;;;;2.95;2.00;;;;;;;8.92;100.00;100555.66;5071980;28;20029;-77
2024/01/22 02:41:30;;;;;;;4.85;2.72;;;;;;;8.91;100.00;100546.03;5071957;28;20130;-76
2024/01/22 02:43:55;;;;;;;3.35;2.28;;;;;;;8.90;100.00;100550.50;5071706;28;20043;-77
2024/01/22 02:46:21;;;;;;;3.97;2.28;;;;;;;8.93;100.00;100558.13;5070500;28;20032;-77
2024/01/22 02:48:46;;;;;;;3.58;2.03;;;;;;;8.88;100.00;100527.78;5071774;28;20021;-77
2024/01/22 02:51:11;;;;;;;6.30;2.35;;;;;;;8.85;100.00;100514.88;5070321;28;20029;-77
2024/01/22 02:53:38;;;;;;;3.13;1.98;;;;;;;8.76;100.00;100528.31;5070301;28;20067;-77
2024/01/22 02:56:04;;;;;;;4.05;2.00;;;;;;;8.68;100.00;100522.34;5071664;28;20040;-77
2024/01/22 02:58:31;;;;;;;3.00;2.30;;;;;;;8.71;100.00;100506.81;5070254;28;20368;-77
2024/01/22 03:00:57;;;;;;;3.30;2.15;;;;;;;8.69;100.00;100513.31;5071324;28;20021;-77
2024/01/22 03:03:22;;;;;;;2.42;2.13;;;;;;;8.74;100.00;100498.44;5071492;28;20028;-77
2024/01/22 03:05:47;;;;;;;2.72;2.03;;;;;;;8.82;100.00;100496.66;5071291;28;20463;-77
2024/01/22 03:08:13;;;;;;;3.05;1.98;;;;;;;8.80;100.00;100480.88;5071426;28;20056;-77
2024/01/22 03:10:38;;;;;;;2.70;1.85;;;;;;;8.71;100.00;100480.22;5070370;28;20055;-77
2024/01/22 03:13:04;;;;;;;4.75;1.70;;;;;;;8.64;100.00;100478.53;5071227;28;20119;-77
2024/01/22 03:15:29;;;;;;;6.93;2.45;;;;;;;8.59;100.00;100470.31;5071332;28;20028;-78
2024/01/22 03:17:54;;;;;;;4.72;2.00;;;;;;;8.54;100.00;100470.88;5069848;28;20033;-77
2024/01/22 03:20:20;;;;;;;4.50;2.97;;;;;;;8.53;100.00;100469.25;5071119;28;20060;-77
2024/01/22 03:22:45;;;;;;;12.07;3.15;;;;;;;8.32;100.00;100414.25;5071180;28;20058;-77
2024/01/22 03:25:14;;;;;;;3.78;1.80;;;;;;;8.48;100.00;100442.41;5070968;28;20066;-77
2024/01/22 03:27:40;;;;;;;4.97;2.20;;;;;;;8.46;100.00;100439.97;5069588;28;20033;-77
2024/01/22 03:30:06;;;;;;;4.13;2.03;;;;;;;8.46;100.00;100447.09;5070917;28;20097;-77
2024/01/22 03:32:31;;;;;;;3.55;1.65;;;;;;;8.46;100.00;100436.47;5052873;28;20072;-77
2024/01/22 03:34:57;;;;;;;4.75;1.83;;;;;;;8.54;100.00;100446.94;5070795;28;20435;-77
2024/01/22 03:37:22;;;;;;;4.95;2.05;;;;;;;8.59;100.00;100452.50;5070649;28;20032;-77
2024/01/22 03:39:47;;;;;;;2.65;1.70;;;;;;;8.60;100.00;100440.06;5069233;28;20379;-77
2024/01/22 03:42:13;;;;;;;2.22;1.73;;;;;;;8.60;100.00;100427.59;5070575;28;20032;-77
2024/01/22 03:44:38;;;;;;;3.17;1.90;;;;;;;8.68;100.00;100440.72;5069371;28;20519;-77
2024/01/22 03:47:04;;;;;;;1.98;1.73;;;;;;;8.75;100.00;100433.63;5070663;28;20119;-77
2024/01/22 03:49:29;;;;;;;3.00;1.52;;;;;;;8.67;100.00;100433.78;5070537;28;20494;-77
2024/01/22 03:51:54;;;;;;;3.17;2.22;;;;;;;8.72;100.00;100443.81;5070541;28;20024;-77
2024/01/22 03:54:20;;;;;;;2.60;1.90;;;;;;;8.72;100.00;100427.84;5069143;28;20059;-77
2024/01/22 03:56:45;;;;;;;4.30;2.22;;;;;;;8.73;100.00;100429.53;5070298;28;20036;-77
2024/01/22 03:59:11;;;;;;;2.08;1.63;;;;;;;8.71;100.00;100412.94;5070340;28;20071;-77
2024/01/22 04:01:36;;;;;;;3.03;1.85;;;;;;;8.67;100.00;100428.47;5069013;28;20048;-77
2024/01/22 04:04:01;;;;;;;3.53;1.60;;;;;;;8.72;100.00;100414.56;5070121;28;20036;-76
2024/01/22 04:06:27;;;;;;;3.50;1.50;;;;;;;8.75;100.00;100425.66;5070173;28;20027;-77
2024/01/22 04:08:52;;;;;;;3.10;2.10;;;;;;;8.76;100.00;100423.81;5069953;28;20032;-77
2024/01/22 04:11:17;;;;;;;2.03;1.83;;;;;;;8.73;100.00;100426.88;5070023;28;20388;-78
2024/01/22 04:13:43;;;;;;;2.67;1.70;;;;;;;8.66;100.00;100402.88;5070207;28;20391;-78
2024/01/22 04:16:15;;;;;;;4.13;1.60;;;;;;;8.67;100.00;100423.16;5070117;28;20067;-77
2024/01/22 04:18:41;;;;;;;2.72;1.42;;;;;;;8.63;100.00;100403.28;5070077;28;20040;-77
2024/01/22 04:21:07;;;;;;;3.10;1.80;;;;;;;8.66;100.00;100407.38;5068685;28;20032;-77
2024/01/22 04:23:34;;;;;;;3.85;1.77;;;;;;;8.63;100.00;100405.94;5069110;28;20024;-77
2024/01/22 04:26:00;;;;;;;2.67;1.67;;;;;;;8.63;100.00;100389.16;5069833;28;20029;-77
2024/01/22 04:28:25;;;;;;;1.98;1.15;;;;;;;8.67;100.00;100393.06;5069981;28;20036;-77
2024/01/22 04:30:50;;;;;;;3.03;1.42;;;;;;;8.73;100.00;100406.41;5068502;28;20032;-77
2024/01/22 04:33:16;;;;;;;3.08;1.70;;;;;;;8.75;100.00;100407.03;5069670;28;20049;-77
2024/01/22 04:35:41;;;;;;;4.50;1.90;;;;;;;8.78;100.00;100397.84;5069866;28;20119;-77
2024/01/22 04:38:07;;;;;;;3.67;1.92;;;;;;;8.78;100.00;100401.31;5068550;28;20119;-77
2024/01/22 04:40:32;;;;;;;2.35;1.73;;;;;;;8.83;100.00;100403.41;5069790;28;20062;-77
2024/01/22 04:42:57;;;;;;;2.17;1.70;;;;;;;8.88;100.00;100394.81;5069747;28;20029;-77
2024/01/22 04:45:23;;;;;;;4.25;1.45;;;;;;;8.96;100.00;100390.19;5068260;28;20036;-77
2024/01/22 04:47:48;;;;;;;2.63;1.95;;;;;;;8.98;100.00;100403.25;5069625;28;20043;-77
2024/01/22 04:50:13;;;;;;;2.35;1.40;;;;;;;8.96;100.00;100384.00;5068236;28;20125;-77
2024/01/22 04:52:39;;;;;;;3.33;1.20;;;;;;;9.06;100.00;100395.09;5068228;28;20036;-77
2024/01/22 04:55:04;;;;;;;4.00;1.42;;;;;;;9.10;100.00;100383.06;5069671;28;20028;-77
2024/01/22 04:57:30;;;;;;;2.28;1.50;;;;;;;9.13;100.00;100387.16;5068165;28;20123;-77
2024/01/22 04:59:55;;;;;;;2.53;1.52;;;;;;;9.16;100.00;100376.13;5068096;28;20024;-77
2024/01/22 05:02:27;;;;;;;1.55;1.33;;;;;;;9.15;100.00;100383.28;5069500;28;20472;-77
2024/01/22 05:05:10;;;;;;;6.80;2.17;;;;;;;9.19;100.00;100387.19;5069209;28;20942;-77
2024/01/22 05:07:36;;;;;;;3.45;1.45;;;;;;;9.23;100.00;100362.84;5068013;28;20128;-76
2024/01/22 05:10:06;;;;;;;2.83;1.55;;;;;;;9.23;100.00;100354.88;5069402;28;20124;-77
2024/01/22 05:12:32;;;;;;;3.38;1.95;;;;;;;9.25;100.00;100350.16;5068139;28;20071;-73
2024/01/22 05:14:57;;;;;;;1.38;1.20;;;;;;;9.27;100.00;100372.88;5068031;28;20032;-73
2024/01/22 05:17:23;;;;;;;1.48;1.13;;;;;;;9.30;100.00;100361.88;5069461;28;20025;-73
2024/01/22 05:19:49;;;;;;;1.20;1.00;;;;;;;9.32;100.00;100367.78;5069450;28;20052;-73
2024/01/22 05:22:14;;;;;;;1.48;1.20;;;;;;;9.34;100.00;100360.44;5069390;28;20067;-73
2024/01/22 05:24:40;;;;;;;3.58;1.63;;;;;;;9.37;100.00;100368.00;5069189;28;20087;-73
2024/01/22 05:27:08;;;;;;;3.28;1.25;;;;;;;9.38;100.00;100359.00;5069459;28;20048;-73
2024/01/22 05:29:33;;;;;;;2.45;1.15;;;;;;;9.43;100.00;100348.59;5068744;28;20093;-73
2024/01/22 05:31:58;;;;;;;1.90;1.38;;;;;;;9.46;100.00;100350.03;5069104;28;20973;-73
2024/01/22 05:34:24;;;;;;;2.30;1.17;;;;;;;9.51;100.00;100352.91;5070455;28;20036;-73
2024/01/22 05:36:50;;;;;;;4.05;1.65;;;;;;;9.52;100.00;100369.69;5073093;28;20028;-73
2024/01/22 05:39:15;;;;;;;2.03;1.00;;;;;;;9.57;100.00;100367.25;5054952;28;20036;-73
2024/01/22 05:41:41;;;;;;;1.63;1.02;;;;;;;9.60;100.00;100361.50;5072893;28;20024;-73
2024/01/22 05:44:08;;;;;;;1.88;1.00;;;;;;;9.63;100.00;100372.56;5071432;28;20494;-73
2024/01/22 05:46:33;;;;;;;1.48;1.25;;;;;;;9.68;100.00;100360.50;5072766;28;20028;-73
2024/01/22 05:48:59;;;;;;;2.20;1.10;;;;;;;9.65;100.00;100356.41;5072626;28;20055;-73
2024/01/22 05:51:25;;;;;;;3.22;1.08;;;;;;;9.68;100.00;100363.97;5072676;28;20380;-73
2024/01/22 05:53:51;;;;;;;2.70;1.15;;;;;;;9.70;100.00;100377.91;5072672;28;20106;-73
2024/01/22 05:56:26;;;;;;;4.07;1.05;;;;;;;9.77;100.00;100377.91;5072777;28;20492;-73
2024/01/22 05:58:53;;;;;;;5.32;1.02;;;;;;;9.76;100.00;100382.44;5072504;28;20036;-73
2024/01/22 06:01:26;;;;;;;2.10;1.00;;;;;;;9.76;100.00;100376.28;5054572;28;20472;-73
2024/01/22 06:03:51;;;;;;;2.75;1.20;;;;;;;9.76;100.00;100384.28;5072415;28;20373;-73
2024/01/22 06:06:17;;;;;;;1.88;1.10;;;;;;;9.77;100.00;100378.75;5072431;28;20039;-73
2024/01/22 06:08:43;;;;;;;2.53;1.10;;;;;;;9.81;100.00;100384.47;5072460;28;20472;-73
2024/01/22 06:11:10;;;;;;;2.83;1.42;;;;;;;9.75;100.00;100383.47;5072160;28;20029;-73
2024/01/22 06:13:39;;;;;;;2.78;1.65;;;;;;;9.79;100.00;100387.34;5070742;28;20068;-73
2024/01/22 06:16:07;;;;;;;3.58;1.30;;;;;;;9.78;100.00;100390.22;5072626;28;20860;-73
2024/01/22 06:18:33;;;;;;;2.13;1.33;;;;;;;9.75;100.00;100375.47;5072182;28;20059;-73
2024/01/22 06:20:59;;;;;;;1.90;1.10;;;;;;;9.74;100.00;100392.44;5072197;28;20048;-73
2024/01/22 06:23:24;;;;;;;5.68;1.77;;;;;;;9.77;100.00;100362.78;5072157;28;20078;-74
2024/01/22 06:25:50;;;;;;;2.97;1.20;;;;;;;9.71;100.00;100352.09;5071854;28;20066;-73
2024/01/22 06:28:15;;;;;;;1.60;1.20;;;;;;;9.68;100.00;100366.66;5054237;28;20036;-73
2024/01/22 06:30:40;;;;;;;2.05;1.38;;;;;;;9.64;100.00;100366.25;5071974;28;20120;-73
2024/01/22 06:33:06;;;;;;;1.25;1.15;;;;;;;9.63;100.00;100377.06;5071952;28;20525;-73
2024/01/22 06:35:31;;;;;;;2.33;1.42;;;;;;;9.61;100.00;100371.13;5072109;28;20063;-73
2024/01/22 06:37:56;;;;;;;2.53;1.60;;;;;;;9.61;100.00;100374.59;5070677;28;20052;-73
2024/01/22 06:40:22;;;;;;;1.77;1.67;;;;;;;9.62;100.00;100367.47;5070533;28;20146;-73
2024/01/22 06:42:47;;;;;;;2.35;1.00;;;;;;;9.56;100.00;100373.56;5071796;28;20116;-73
2024/01/22 06:45:13;;;;;;;2.53;1.60;;;;;;;9.51;100.00;100368.88;5069785;28;20032;-73
2024/01/22 06:47:38;;;;;;;2.92;1.25;;;;;;;9.56;100.00;100393.06;5071291;28;20033;-73
2024/01/22 06:50:04;;;;;;;1.85;1.10;;;;;;;9.53;100.00;100373.97;5071701;28;20436;-73
2024/01/22 06:52:29;;;;;;;2.65;0.90;;;;;;;9.55;100.00;100378.09;5071526;28;20024;-73
2024/01/22 06:54:56;;;;;;;1.42;1.17;;;;;;;9.57;100.00;100400.00;5070385;28;20025;-73
2024/01/22 06:57:21;;;;;;;1.45;1.08;;;;;;;9.64;100.00;100397.34;5070067;28;20036;-73
2024/01/22 06:59:46;;;;;;;1.60;1.38;;;;;;;9.68;100.00;100419.91;5071628;28;20119;-73
2024/01/22 07:02:12;;;;;;;2.75;1.45;;;;;;;9.72;100.00;100413.16;5071554;28;20064;-73
2024/01/22 07:04:37;;;;;;;2.15;1.30;;;;;;;9.75;100.00;100426.06;5071498;28;20040;-73
2024/01/22 07:07:03;;;;;;;1.95;1.17;;;;;;;9.78;100.00;100419.53;5071464;28;20047;-73
2024/01/22 07:09:29;;;;;;;1.00;0.90;;;;;;;9.81;100.00;100417.25;5071288;28;20396;-73
2024/01/22 07:11:54;;;;;;;2.92;1.10;;;;;;;9.77;100.00;100420.53;5071332;28;20052;-73
2024/01/22 07:14:19;;;;;;;0.90;0.90;;;;;;;9.72;100.00;100423.81;5071193;28;20031;-73
2024/01/22 07:16:44;;;;;;;3.33;1.10;;;;;;;9.70;100.00;100420.53;5071149;28;20073;-73
2024/01/22 07:19:10;;;;;;;2.58;1.85;;;;;;;9.71;100.00;100424.00;5071126;28;20067;-73
2024/01/22 07:21:35;;;;;;;2.50;0.95;;;;;;;9.75;100.00;100430.59;5069677;28;20032;-73
2024/01/22 07:24:01;;;;;;;1.98;1.23;;;;;;;9.72;100.00;100420.31;5071162;28;20047;-73
2024/01/22 07:26:26;;;;;;;3.13;1.55;;;;;;;9.80;100.00;100425.47;5070888;28;20043;-73
2024/01/22 07:28:52;;;;;;;2.35;1.23;;;;;;;9.81;100.00;100408.47;5069783;28;20029;-73
2024/01/22 07:31:17;;;;;;;5.18;2.30;;;;;;;9.83;100.00;100409.91;5070623;28;20492;-73
2024/01/22 07:33:43;;;;;;;1.58;1.00;;;;;;;9.95;100.00;100426.09;5069600;28;20043;-73
2024/01/22 07:36:08;;;;;;;2.40;1.25;;;;;;;9.90;100.00;100401.91;5070833;28;20024;-73
2024/01/22 07:38:33;;;;;;;2.35;1.30;;;;;;;9.94;100.00;100429.78;5069202;28;20025;-73
2024/01/22 07:40:59;;;;;;;3.28;1.17;;;;;;;9.90;100.00;100420.53;5070550;28;20021;-73
2024/01/22 07:43:24;;;;;;;6.97;1.58;;;;;;;9.90;100.00;100428.53;5069339;28;20043;-74
2024/01/22 07:45:49;;;;;;;5.80;2.10;;;;;;;9.90;100.00;100433.88;5070527;28;20025;-73
2024/01/22 07:48:15;;;;;;;3.28;1.27;;;;;;;9.90;100.00;100439.19;5053105;28;20115;-73
2024/01/22 07:50:41;;;;;;;6.68;0.90;;;;;;;9.90;100.00;100441.84;5070490;28;20167;-75
2024/01/22 07:53:07;;;;;;;3.83;1.13;;;;;;;9.92;100.00;100436.34;5069168;28;20052;-72
2024/01/22 07:55:33;;;;;;;3.40;1.30;;;;;;;9.90;100.00;100441.03;5068585;28;20040;-72
2024/01/22 07:57:58;;;;;;;3.97;1.75;;;;;;;9.92;100.00;100436.34;5069357;28;20103;-72
2024/01/22 08:00:24;;;;;;;3.45;1.42;;;;;;;9.94;100.00;100450.28;5069486;28;20474;-72
2024/01/22 08:02:49;;;;;;;5.90;1.27;;;;;;;9.92;100.00;100442.47;5069474;28;20032;-72
2024/01/22 08:05:14;;;;;;;5.32;1.55;;;;;;;9.86;100.00;100438.78;5069549;28;20041;-72
2024/01/22 08:07:41;;;;;;;6.20;1.98;;;;;;;9.83;100.00;100443.69;5070273;28;20108;-72
2024/01/22 08:10:08;;;;;;;12.85;2.50;;;;;;;9.81;100.00;100432.44;5070111;28;20024;-72
2024/01/22 08:12:33;;;;;;;4.03;1.40;;;;;;;9.77;100.00;100439.16;5070108;28;20093;-72
2024/01/22 08:14:58;;;;;;;8.73;1.60;;;;;;;9.82;100.00;100447.38;5070116;28;20479;-72
2024/01/22 08:17:24;;;;;;;5.07;1.50;;;;;;;9.79;100.00;100451.25;5051956;28;20118;-72
2024/01/22 08:19:49;;;;;;;7.22;1.95;;;;;;;9.78;100.00;100454.13;5069869;28;20499;-72
2024/01/22 08:22:14;;;;;;;10.32;1.98;;;;;;;9.80;100.00;100460.09;5068387;28;20032;-74
2024/01/22 08:24:40;;;;;;;10.48;2.38;;;;;;;9.68;100.00;100459.03;5068751;28;20077;-75
2024/01/22 08:27:05;;;;;;;8.50;2.28;;;;;;;9.63;100.00;100465.75;5067198;28;20107;-75
2024/01/22 08:29:30;;;;;;;7.20;2.30;;;;;;;9.63;100.00;100472.94;5066245;28;20025;-71
2024/01/22 08:31:56;;;;;;;5.28;2.20;;;;;;;9.61;100.00;100481.09;5067349;28;20055;-71
2024/01/22 08:34:22;;;;;;;5.97;1.65;;;;;;;9.60;100.00;100473.34;5048932;28;20151;-72
2024/01/22 08:36:47;;;;;;;18.05;3.28;;;;;;;9.56;100.00;100450.78;5067806;28;20025;-72
2024/01/22 08:39:12;;;;;;;11.23;1.63;;;;;;;9.59;100.00;100467.19;5067362;28;20044;-73
2024/01/22 08:41:38;;;;;;;3.20;1.10;;;;;;;9.58;100.00;100473.53;5067631;28;20683;-73
2024/01/22 08:44:05;;;;;;;4.22;1.05;;;;;;;9.60;100.00;100468.00;5067630;28;20446;-72
2024/01/22 08:46:31;;;;;;;5.90;1.25;;;;;;;9.58;100.00;100470.03;5067364;28;20115;-73
2024/01/22 08:48:56;;;;;;;5.50;1.52;;;;;;;9.58;100.00;100478.03;5067504;28;20360;-72
2024/01/22 08:51:22;;;;;;;11.77;1.95;;;;;;;9.54;100.00;100469.63;5065824;28;20086;-73
2024/01/22 08:53:47;;;;;;;10.75;2.55;;;;;;;9.47;100.00;100479.44;5066176;28;20379;-73
2024/01/22 08:56:13;;;;;;;8.77;3.20;;;;;;;9.50;100.00;100483.53;5066865;28;20047;-73
2024/01/22 08:58:39;;;;;;;9.60;2.00;;;;;;;9.48;100.00;100486.38;5067634;28;20498;-72
2024/01/22 09:01:06;;;;;;;9.00;2.25;;;;;;;9.47;100.00;100483.94;5067585;28;20028;-72
2024/01/22 09:03:32;;;;;;;19.50;1.90;;;;;;;9.41;100.00;100477.56;5067187;28;20032;-71
2024/01/22 09:05:58;;;;;;;12.15;2.47;;;;;;;9.41;100.00;100474.91;5066662;28;20040;-72
2024/01/22 09:08:24;;;;;;;10.05;2.15;;;;;;;9.39;100.00;100471.63;5067264;28;20033;-75
2024/01/22 09:10:49;;;;;;;9.48;2.13;;;;;;;9.37;100.00;100473.66;5071263;28;20033;-73
2024/01/22 09:13:14;;;;;;;7.85;2.88;;;;;;;9.29;100.00;100449.88;5071668;28;20020;-73
2024/01/22 09:15:40;;;;;;;8.18;2.15;;;;;;;9.36;100.00;100467.50;5073078;28;20040;-72
2024/01/22 09:18:05;;;;;;;15.70;2.60;;;;;;;9.35;100.00;100465.03;5073003;28;20507;-71
2024/01/22 09:20:31;;;;;;;11.25;3.03;;;;;;;9.34;100.00;100464.22;5072496;28;20031;-71
2024/01/22 09:22:57;;;;;;;11.77;2.85;;;;;;;9.37;100.00;100469.13;5073591;28;20036;-72
2024/01/22 09:25:22;;;;;;;13.57;2.10;;;;;;;9.31;100.00;100446.00;5073287;28;20109;-71
2024/01/22 09:27:48;;;;;;;13.95;3.50;;;;;;;9.36;100.00;100456.88;5073209;28;20028;-71
2024/01/22 09:30:17;;;;;;;13.18;2.92;;;;;;;9.33;100.00;100459.94;5071724;28;20488;-71
2024/01/22 09:32:42;;;;;;;7.90;1.88;;;;;;;9.31;100.00;100442.50;5073130;28;20064;-71
2024/01/22 09:35:08;;;;;;;12.32;3.10;;;;;;;9.39;100.00;100445.81;5073275;28;20023;-71
2024/01/22 09:37:34;;;;;;;7.78;2.28;;;;;;;9.44;100.00;100434.56;5073057;28;20099;-71
2024/01/22 09:39:59;;;;;;;5.55;1.83;;;;;;;9.42;100.00;100449.91;5073064;28;20052;-71
2024/01/22 09:42:26;;;;;;;7.82;1.80;;;;;;;9.52;100.00;100460.19;5071734;28;20044;-71
2024/01/22 09:44:52;;;;;;;12.73;3.53;;;;;;;9.55;100.00;100457.13;5072825;28;20048;-71
2024/01/22 09:47:19;;;;;;;8.18;2.20;;;;;;;9.59;100.00;100459.22;5072935;28;20133;-72
2024/01/22 09:49:46;;;;;;;12.55;2.13;;;;;;;9.58;100.00;100456.72;5072489;28;20058;-72
2024/01/22 09:52:16;;;;;;;9.30;2.97;;;;;;;9.57;100.00;100461.25;5072843;28;20107;-71
2024/01/22 09:54:43;;;;;;;10.57;3.50;;;;;;;9.60;100.00;100471.50;5072632;28;20031;-72
2024/01/22 09:57:16;;;;;;;6.00;2.50;;;;;;;9.54;100.00;100466.16;5072356;28;20048;-72
2024/01/22 09:59:43;;;;;;;4.97;1.40;;;;;;;9.54;100.00;100466.16;5072748;28;20095;-71
2024/01/22 10:02:13;;;;;;;5.60;2.15;;;;;;;9.55;100.00;100479.25;5072525;28;20028;-71
2024/01/22 10:04:39;;;;;;;13.23;2.13;;;;;;;9.59;100.00;100485.84;5072471;28;20031;-71
2024/01/22 10:07:06;;;;;;;15.32;2.30;;;;;;;9.57;100.00;100476.41;5072497;28;20035;-71
2024/01/22 10:09:32;;;;;;;4.47;2.22;;;;;;;9.63;100.00;100489.72;5072498;28;20112;-71
2024/01/22 10:11:57;;;;;;;5.32;2.10;;;;;;;9.62;100.00;100559.97;5072374;28;20028;-71
2024/01/22 10:14:30;;;;;;;3.20;1.10;;;;;;;9.50;100.00;100595.34;5071801;28;20020;-71
2024/01/22 10:16:56;;;;;;;5.70;1.45;;;;;;;9.09;100.00;100580.97;5071414;28;20395;-71
2024/01/22 10:19:25;;;;;;;6.70;1.77;;;;;;;8.77;100.00;100585.78;5071764;28;20039;-71
2024/01/22 10:22:00;;;;;;;6.13;1.58;;;;;;;8.57;100.00;100582.16;5072197;28;20039;-71
2024/01/22 10:24:26;;;;;;;5.47;1.50;;;;;;;8.38;100.00;100594.19;5072357;28;20059;-71
2024/01/22 10:26:51;;;;;;;10.50;2.22;;;;;;;8.31;100.00;100607.41;5070985;28;20064;-72
2024/01/22 10:29:22;;;;;;;7.28;1.00;;;;;;;8.24;100.00;100606.50;5072064;28;20060;-71
2024/01/22 10:31:59;;;;;;;5.43;1.70;;;;;;;8.25;100.00;100605.50;5070763;28;20040;-71
2024/01/22 10:34:28;;;;;;;9.43;1.90;;;;;;;8.23;100.00;100612.84;5072071;28;20058;-71
2024/01/22 10:37:10;;;;;;;9.75;1.88;;;;;;;8.22;100.00;100619.16;5070639;28;20024;-72
2024/01/22 10:39:37;;;;;;;4.07;1.48;;;;;;;8.21;100.00;100638.75;5071863;28;20379;-71
2024/01/22 10:42:13;;;;;;;8.18;1.88;;;;;;;8.18;100.00;100644.44;5071899;28;20099;-71
2024/01/22 10:44:41;;;;;;;11.77;1.85;;;;;;;8.19;100.00;100637.31;5070453;28;20391;-72
2024/01/22 10:47:07;;;;;;;9.15;2.13;;;;;;;8.13;100.00;100634.38;5071919;28;20028;-72
2024/01/22 10:49:33;;;;;;;8.48;1.55;;;;;;;8.15;100.00;100634.22;5070596;28;20044;-71
2024/01/22 10:52:00;;;;;;;14.23;3.03;;;;;;;8.09;100.00;100634.94;5071790;28;20024;-71
2024/01/22 10:54:26;;;;;;;14.68;2.97;;;;;;;8.08;100.00;100633.28;5070301;28;20136;-71
2024/01/22 10:57:03;;;;;;;11.30;2.75;;;;;;;8.09;100.00;100629.63;5070292;28;20057;-71
2024/01/22 10:59:33;;;;;;;13.32;2.70;;;;;;;8.17;100.00;100634.00;5071418;28;20036;-72
2024/01/22 11:01:59;;;;;;;15.68;3.10;;;;;;;8.22;100.00;100644.91;5070175;28;20064;-71
2024/01/22 11:04:52;;;;;;;16.27;4.07;;;;;;;8.22;100.00;100639.59;5071490;28;20074;-72
2024/01/22 11:07:24;;;;;;;11.60;2.72;;;;;;;8.30;100.00;100639.47;5070844;28;20062;-71
2024/01/22 11:09:52;;;;;;;16.65;2.85;;;;;;;8.34;100.00;100644.22;5071221;28;20025;-72
2024/01/22 11:12:21;;;;;;;21.23;2.90;;;;;;;8.40;100.00;100641.88;5071999;28;20021;-71
2024/01/22 11:14:47;;;;;;;11.95;2.38;;;;;;;8.44;100.00;100645.81;5071175;28;20380;-72
2024/01/22 11:17:13;;;;;;;19.30;4.32;;;;;;;8.44;100.00;100637.84;5071238;28;20115;-71
2024/01/22 11:19:38;;;;;;;16.98;4.10;;;;;;;8.47;100.00;100645.44;5070945;28;20035;-71